Weather History for Grant County, OR

Change the Weather History Date:

Wednesday, August 28, 2013

  Actual Average (KBNO) Record (KBNO)
Temperature  
Mean Temperature 74 °F 62 °F  
Max Temperature 91 °F 82 °F 96 °F (1998)
Min Temperature 57 °F 42 °F 31 °F (1995)
Degree Days  
Heating Degree Days 0 4  
Month to date heating degree days 64  
Since 1 June heating degree days 340  
Since 1 July heating degree days 122  
Cooling Degree Days 8 1  
Month to date cooling degree days 70  
Year to date cooling degree days 202  
Since 1 June cooling degree days 199  
Growing Degree Days 24 (Base 50)    
Moisture  
Dew Point 32 °F    
Average Humidity 24    
Maximum Humidity 49    
Minimum Humidity 9    
Precipitation  
Precipitation 0.00 in 0.01 in 0.21 in (1979)
Month to date precipitation 0.32  
Year to date precipitation 6.94  
Sea Level Pressure  
Sea Level Pressure 29.94 in    
Wind  
Wind Speed 8 mph (South)    
Max Wind Speed 17 mph    
Max Gust Speed 30 mph    
Visibility 10 miles    
Events      
T = Trace of Precipitation, MM = Missing Value Source: NWS Daily Summary

Daily Weather History Graph

Daily Weather History Graph

Search for Another Location

Airport:

Trip Planner

Search our weather history database for the weather conditions in past years. The results will help you decide how hot, cold, wet, or windy it might be!

Date:

Astronomy

Aug. 28, 2013 Rise Set
Actual Time 6:14 AM PDT 7:38 PM PDT
Civil Twilight 5:44 AM PDT 8:08 PM PDT
Nautical Twilight 5:07 AM PDT 8:45 PM PDT
Astronomical Twilight 4:28 AM PDT 9:23 PM PDT
Moon No Moon Rise 2:27 PM PDT (8/28)
Length of Visible Light 14h 24m
Length of Day
13h 24m
Last Quarter, 46% of the Moon is Illuminated
Aug 28
Last Quarter
Sep 5
New
Sep 12
First Quarter
Sep 19
Full
Sep 26
Last Quarter

Hourly Weather History & Observations

Time (PDT) Temp. Dew Point Humidity Pressure Visibility Wind Dir Wind Speed Gust Speed Precip Events Conditions
12:15 AM 66.7 °F 44.6 °F 45% 29.89 in 10.0 mi Calm Calm - N/A   Clear
12:35 AM 66.7 °F 44.6 °F 45% 29.90 in 10.0 mi Calm Calm - N/A   Clear
12:55 AM 66.4 °F 44.6 °F 45% 29.90 in 10.0 mi SSW 3.5 mph - N/A   Clear
1:15 AM 65.5 °F 45.0 °F 47% 29.90 in 10.0 mi Calm Calm - N/A   Clear
1:35 AM 63.0 °F 43.7 °F 49% 29.90 in 10.0 mi SE 3.5 mph - N/A   Clear
1:55 AM 61.7 °F 39.7 °F 44% 29.90 in 10.0 mi South 6.9 mph - N/A   Clear
2:15 AM 59.5 °F 36.9 °F 43% 29.90 in 10.0 mi SE 10.4 mph - N/A   Clear
2:35 AM 61.3 °F 34.2 °F 36% 29.91 in 10.0 mi ESE 9.2 mph - N/A   Clear
2:55 AM 60.6 °F 34.0 °F 37% 29.91 in 10.0 mi ESE 9.2 mph - N/A   Clear
3:15 AM 57.9 °F 34.5 °F 41% 29.91 in 10.0 mi East 9.2 mph - N/A   Clear
3:35 AM 58.5 °F 34.3 °F 40% 29.92 in 10.0 mi ESE 10.4 mph - N/A   Clear
3:55 AM 58.6 °F 32.7 °F 38% 29.91 in 10.0 mi ESE 9.2 mph - N/A   Clear
4:15 AM 57.6 °F 32.4 °F 39% 29.92 in 10.0 mi ESE 11.5 mph - N/A   Clear
4:35 AM 58.1 °F 32.0 °F 37% 29.92 in 10.0 mi ESE 8.1 mph - N/A   Clear
4:55 AM 59.5 °F 32.0 °F 35% 29.92 in 10.0 mi ESE 12.7 mph - N/A   Clear
5:15 AM 59.5 °F 31.8 °F 35% 29.93 in 10.0 mi ESE 9.2 mph - N/A   Scattered Clouds
5:35 AM 58.1 °F 31.6 °F 37% 29.93 in 10.0 mi East 12.7 mph - N/A   Clear
5:55 AM 58.1 °F 33.1 °F 39% 29.94 in 10.0 mi ESE 12.7 mph - N/A   Clear
6:15 AM 58.1 °F 31.6 °F 37% 29.94 in 10.0 mi East 8.1 mph 11.5 mph N/A   Clear
6:35 AM 59.0 °F 32.7 °F 37% 29.95 in 10.0 mi East 9.2 mph - N/A   Clear
6:55 AM 59.9 °F 31.1 °F 34% 29.95 in 10.0 mi East 9.2 mph - N/A   Clear
7:15 AM 59.5 °F 35.6 °F 41% 29.96 in 10.0 mi East 10.4 mph - N/A   Scattered Clouds
7:35 AM 60.3 °F 32.9 °F 36% 29.97 in 10.0 mi ESE 9.2 mph - N/A   Scattered Clouds
7:55 AM 61.7 °F 33.8 °F 35% 29.97 in 10.0 mi East 9.2 mph - N/A   Clear
8:15 AM 63.1 °F 32.7 °F 32% 29.97 in 10.0 mi East 5.8 mph - N/A   Clear
8:35 AM 67.1 °F 33.4 °F 29% 29.97 in 10.0 mi Calm Calm - N/A   Clear
8:55 AM 70.5 °F 32.5 °F 25% 29.98 in 10.0 mi NNW 5.8 mph - N/A   Clear
9:15 AM 73.2 °F 32.5 °F 22% 29.98 in 10.0 mi NW 6.9 mph - N/A   Clear
9:35 AM 75.6 °F 33.1 °F 21% 29.98 in 10.0 mi SW 9.2 mph - N/A   Clear
9:55 AM 78.4 °F 29.5 °F 17% 29.98 in 10.0 mi South 10.4 mph - N/A   Clear
10:15 AM 80.1 °F 30.6 °F 17% 29.98 in 10.0 mi SSW 10.4 mph 16.1 mph N/A   Clear
10:35 AM 80.2 °F 30.7 °F 17% 29.98 in 10.0 mi SW 10.4 mph 19.6 mph N/A   Clear
10:55 AM 81.9 °F 31.8 °F 16% 29.98 in 10.0 mi WSW 15.0 mph 19.6 mph N/A   Clear
11:15 AM 82.8 °F 32.5 °F 16% 29.98 in 10.0 mi SW 13.8 mph 17.3 mph N/A   Clear
11:35 AM 84.2 °F 33.8 °F 16% 29.97 in 10.0 mi WSW 13.8 mph 21.9 mph N/A   Clear
11:55 AM 84.6 °F 33.3 °F 16% 29.98 in 10.0 mi SW 17.3 mph 29.9 mph N/A   Clear
12:15 PM 84.7 °F 33.3 °F 16% 29.98 in 10.0 mi SSW 13.8 mph 17.3 mph N/A   Clear
12:35 PM 85.8 °F 31.3 °F 14% 29.97 in 10.0 mi SSW 11.5 mph 25.3 mph N/A   Clear
12:55 PM 86.2 °F 31.8 °F 14% 29.96 in 10.0 mi South 17.3 mph 25.3 mph N/A   Clear
1:15 PM 87.6 °F 30.9 °F 13% 29.96 in 10.0 mi SSW 13.8 mph 25.3 mph N/A   Clear
1:35 PM 88.5 °F 28.6 °F 12% 29.96 in 10.0 mi South 13.8 mph 25.3 mph N/A   Clear
1:55 PM 88.5 °F 26.6 °F 11% 29.95 in 10.0 mi WSW 16.1 mph 21.9 mph N/A   Clear
2:15 PM 88.7 °F 29.7 °F 12% 29.94 in 10.0 mi SSW 13.8 mph 28.8 mph N/A   Clear
2:35 PM 88.5 °F 29.8 °F 12% 29.95 in 10.0 mi South 15.0 mph 23.0 mph N/A   Clear
2:55 PM 88.9 °F 29.3 °F 12% 29.94 in 10.0 mi SSE 16.1 mph 24.2 mph N/A   Clear
3:15 PM 89.8 °F 27.9 °F 11% 29.94 in 10.0 mi SSW 12.7 mph 21.9 mph N/A   Clear
3:35 PM 89.1 °F 27.5 °F 11% 29.93 in 10.0 mi South 6.9 mph - N/A   Clear
3:55 PM 90.1 °F 26.6 °F 10% 29.93 in 10.0 mi South 13.8 mph 21.9 mph N/A   Clear
4:15 PM 90.9 °F 23.0 °F 9% 29.93 in 10.0 mi South 12.7 mph 23.0 mph N/A   Clear
4:35 PM 89.4 °F 24.8 °F 10% 29.93 in 10.0 mi SSW 17.3 mph 23.0 mph N/A   Clear
4:55 PM 89.8 °F 27.0 °F 10% 29.92 in 10.0 mi SW 16.1 mph 21.9 mph N/A   Clear
5:15 PM 89.6 °F 27.1 °F 11% 29.92 in 10.0 mi South 8.1 mph - N/A   Clear
5:35 PM 89.8 °F 28.0 °F 11% 29.91 in 10.0 mi SSW 8.1 mph 17.3 mph N/A   Clear
5:55 PM 89.6 °F 27.5 °F 11% 29.91 in 10.0 mi West 8.1 mph - N/A   Clear
6:15 PM 88.9 °F 27.5 °F 11% 29.90 in 10.0 mi SW 11.5 mph 19.6 mph N/A   Clear
6:35 PM 88.3 °F 29.1 °F 12% 29.90 in 10.0 mi SW 8.1 mph 17.3 mph N/A   Clear
6:55 PM 87.4 °F 29.5 °F 12% 29.90 in 10.0 mi WSW 9.2 mph - N/A   Clear
7:15 PM 85.5 °F 29.7 °F 13% 29.90 in 10.0 mi WSW 8.1 mph - N/A   Clear
7:35 PM 84.0 °F 30.0 °F 14% 29.91 in 10.0 mi WSW 8.1 mph - N/A   Clear
7:55 PM 81.0 °F 30.7 °F 16% 29.91 in 10.0 mi SW 6.9 mph - N/A   Clear
8:15 PM 78.8 °F 31.5 °F 18% 29.92 in 10.0 mi SSW 6.9 mph - N/A   Clear
8:35 PM 79.0 °F 31.1 °F 17% 29.93 in 10.0 mi SSW 6.9 mph - N/A   Clear
8:55 PM 78.3 °F 30.7 °F 18% 29.93 in 10.0 mi SSW 8.1 mph - N/A   Clear
9:15 PM 78.6 °F 30.9 °F 18% 29.94 in 10.0 mi South 6.9 mph - N/A   Clear
9:35 PM 79.0 °F 31.6 °F 18% 29.94 in 10.0 mi South 10.4 mph - N/A   Clear
9:55 PM 77.4 °F 31.8 °F 19% 29.95 in 10.0 mi SW 3.5 mph - N/A   Clear
10:15 PM 75.4 °F 32.9 °F 21% 29.96 in 10.0 mi South 5.8 mph - N/A   Clear
10:35 PM 70.9 °F 34.7 °F 26% 29.97 in 10.0 mi South 6.9 mph - N/A   Clear
10:55 PM 72.0 °F 33.3 °F 24% 29.97 in 10.0 mi South 3.5 mph - N/A   Clear
11:15 PM 71.4 °F 34.0 °F 25% 29.97 in 10.0 mi Calm Calm - N/A   Clear
11:35 PM 70.7 °F 35.6 °F 28% 29.97 in 10.0 mi WSW 5.8 mph - N/A   Scattered Clouds
11:55 PM 69.1 °F 35.6 °F 29% 29.98 in 10.0 mi WSW 5.8 mph - N/A   Scattered Clouds